Météo Nord-Pas-de-Calais   La météo au plus près de chez vous

Station météorologique

Observations météo à Etoile (26124)

26124001 145 m Dernier relevé à 08:24
18.1°C
Humidité 87 % Vent 7.2 km/h

Journée consultée

Mercredi 2 Septembre 2026

Synthèse de la journée

Périodes de référence en UTC

Température maximale

18.1°C

à 08:24

06h 06h

Température minimale

14.7°C

à 07:00

18h 18h

Rafale maximale

10 km/h

à 02:12

00h 00h

Précipitations

0 mm

Cumul quotidien

06h 06h

Ensoleillement

0h 47 mins

Durée quotidienne

00h 00h

Graphiques de la journée

Heure locale Réduire

Données détaillées

Relevés météo

Pas de 6 minutes Afficher les relevés infra-horaires
Relevés météo détaillés à Etoile pour le Mercredi 2 Septembre 2026
Heure Température °C Point de rosée °C Humidité % Vent moyen (raf.), km/h Précipitations mm Température à 10 cm °C Température à 20 cm °C Ensoleillement min Rayonnement global W/m²
08:24 18.1 °C 13.2 °C 73 % 4 km/h (7 km/h) 0 mm0 mm 22.6 °C 23.1 °C 6 min 85.8 W/m²
08:18 17.4 °C 13.1 °C 76 % 5 km/h (8 km/h) 0 mm0 mm 22.6 °C 23.1 °C 6 min 71.3 W/m²
08:12 16.8 °C 12.9 °C 78 % 5 km/h (8 km/h) 0 mm0 mm 22.6 °C 23.1 °C 6 min 42.5 W/m²
08:06 16.4 °C 12.9 °C 80 % 5 km/h (7 km/h) 0 mm0 mm 22.6 °C 23.1 °C 6 min 47.7 W/m²
08:00 16 °C 12.9 °C 82 % 6 km/h (8 km/h) 0 mm0 mm 22.7 °C 23.1 °C 0 min 23 W/m²
07:54 15.8 °C 12.9 °C 83 % 5 km/h (8 km/h) 0 mm0 mm 22.7 °C 23.1 °C 1 min 20.7 W/m²
07:48 15.6 °C 13.1 °C 85 % 3 km/h (6 km/h) 0 mm0 mm 22.7 °C 23.1 °C 5 min 25.9 W/m²
07:42 15.4 °C 12.9 °C 85 % 4 km/h (7 km/h) 0 mm0 mm 22.7 °C 23.1 °C 6 min 24.1 W/m²
07:36 14.9 °C 12.8 °C 87 % 5 km/h (8 km/h) 0 mm0 mm 22.7 °C 23.1 °C 6 min 13.4 W/m²
07:30 14.9 °C 12.8 °C 87 % 7 km/h (9 km/h) 0 mm0 mm 22.8 °C 23.1 °C 5 min 9.3 W/m²
07:24 14.9 °C 12.8 °C 87 % 7 km/h (9 km/h) 0 mm0 mm 22.8 °C 23.1 °C 0 min 6.6 W/m²
07:18 14.8 °C 12.7 °C 87 % 7 km/h (9 km/h) 0 mm0 mm 22.8 °C 23.2 °C 0 min 5.3 W/m²
07:12 14.8 °C 12.7 °C 87 % 6 km/h (8 km/h) 0 mm0 mm 22.8 °C 23.2 °C 0 min 1.2 W/m²
07:06 14.8 °C 12.5 °C 86 % 6 km/h (8 km/h) 0 mm0 mm 22.8 °C 23.2 °C 0 min 0 W/m²
07:00 14.9 °C 12.6 °C 86 % 6 km/h (8 km/h) 0 mm0 mm 22.8 °C 23.2 °C 0 min 0 W/m²
06:54 14.8 °C 12.7 °C 87 % 6 km/h (8 km/h) 0 mm0 mm 22.8 °C 23.2 °C 0 min 0 W/m²
06:48 14.8 °C 12.7 °C 87 % 6 km/h (8 km/h) 0 mm0 mm 22.8 °C 23.2 °C 0 min 0 W/m²
06:42 14.9 °C 12.6 °C 86 % 6 km/h (8 km/h) 0 mm0 mm 22.8 °C 23.2 °C 0 min 0 W/m²
06:36 15.2 °C 12.5 °C 84 % 5 km/h (8 km/h) 0 mm0 mm 22.9 °C 23.2 °C 0 min 0 W/m²
06:30 15 °C 12.5 °C 85 % 5 km/h (7 km/h) 0 mm0 mm 22.9 °C 23.2 °C 0 min 0 W/m²
06:24 15.3 °C 12.2 °C 82 % 6 km/h (8 km/h) 0 mm0 mm 22.9 °C 23.2 °C 0 min 0 W/m²
06:18 16 °C 12.2 °C 78 % 6 km/h (8 km/h) 0 mm0 mm 22.9 °C 23.2 °C 0 min 0 W/m²
06:12 15.8 °C 12.2 °C 79 % 5 km/h (6 km/h) 0 mm0 mm 22.9 °C 23.2 °C 0 min 0 W/m²
06:06 15.7 °C 12.3 °C 80 % 5 km/h (6 km/h) 0 mm0 mm 22.9 °C 23.2 °C 0 min 0 W/m²
06:00 15.9 °C 12.3 °C 79 % 5 km/h (6 km/h) 0 mm0 mm 22.9 °C 23.3 °C 0 min 0 W/m²
05:54 15.9 °C 12.5 °C 80 % 6 km/h (7 km/h) 0 mm0 mm 23 °C 23.3 °C 0 min 0 W/m²
05:48 16.3 °C 12.5 °C 78 % 6 km/h (7 km/h) 0 mm0 mm 23 °C 23.3 °C 0 min 0 W/m²
05:42 15.6 °C 12.3 °C 81 % 5 km/h (6 km/h) 0 mm0 mm 23 °C 23.3 °C 0 min 0 W/m²
05:36 15.7 °C 12.6 °C 82 % 4 km/h (5 km/h) 0 mm0 mm 23 °C 23.3 °C 0 min 0 W/m²
05:30 15.6 °C 12.7 °C 83 % 4 km/h (5 km/h) 0 mm0 mm 23 °C 23.3 °C 0 min 0 W/m²
05:24 15.7 °C 13 °C 84 % 3 km/h (5 km/h) 0 mm0 mm 23 °C 23.3 °C 0 min 0 W/m²
05:18 15.7 °C 12.8 °C 83 % 3 km/h (5 km/h) 0 mm0 mm 23 °C 23.3 °C 0 min 0 W/m²
05:12 15.8 °C 12.7 °C 82 % 2 km/h (5 km/h) 0 mm0 mm 23 °C 23.3 °C 0 min 0 W/m²
05:06 16 °C 12.9 °C 82 % 2 km/h (3 km/h) 0 mm0 mm 23.1 °C 23.3 °C 0 min 0 W/m²
05:00 16.1 °C 12.6 °C 80 % 3 km/h (6 km/h) 0 mm0 mm 23.1 °C 23.3 °C 0 min 0 W/m²
04:54 16 °C 12.7 °C 81 % 5 km/h (7 km/h) 0 mm0 mm 23.1 °C 23.3 °C 0 min 0 W/m²
04:48 16.1 °C 12.8 °C 81 % 6 km/h (8 km/h) 0 mm0 mm 23.1 °C 23.3 °C 0 min 0 W/m²
04:42 16.1 °C 12.8 °C 81 % 7 km/h (9 km/h) 0 mm0 mm 23.1 °C 23.3 °C 0 min 0 W/m²
04:36 16.2 °C 12.7 °C 80 % 8 km/h (9 km/h) 0 mm0 mm 23.1 °C 23.3 °C 0 min 0 W/m²
04:30 16.1 °C 12.6 °C 80 % 7 km/h (9 km/h) 0 mm0 mm 23.1 °C 23.4 °C 0 min 0 W/m²
04:24 16.2 °C 12.9 °C 81 % 6 km/h (8 km/h) 0 mm0 mm 23.1 °C 23.4 °C 0 min 0 W/m²
04:18 16.3 °C 12.8 °C 80 % 7 km/h (9 km/h) 0 mm0 mm 23.2 °C 23.4 °C 0 min 0 W/m²
04:12 16.3 °C 13.2 °C 82 % 5 km/h (9 km/h) 0 mm0 mm 23.2 °C 23.4 °C 0 min 0 W/m²
04:06 16.2 °C 13.1 °C 82 % 4 km/h (6 km/h) 0 mm0 mm 23.2 °C 23.4 °C 0 min 0 W/m²
04:00 16.2 °C 13.1 °C 82 % 3 km/h (5 km/h) 0 mm0 mm 23.2 °C 23.4 °C 0 min 0 W/m²
03:54 16.2 °C 13.3 °C 83 % 3 km/h (4 km/h) 0 mm0 mm 23.2 °C 23.4 °C 0 min 0 W/m²
03:48 16.3 °C 13.2 °C 82 % 2 km/h (4 km/h) 0 mm0 mm 23.2 °C 23.4 °C 0 min 0 W/m²
03:42 16.4 °C 12.7 °C 79 % 2 km/h (4 km/h) 0 mm0 mm 23.2 °C 23.4 °C 0 min 0 W/m²
03:36 16.4 °C 12.9 °C 80 % 2 km/h (4 km/h) 0 mm0 mm 23.3 °C 23.4 °C 0 min 0 W/m²
03:30 16.7 °C 13.2 °C 80 % 3 km/h (4 km/h) 0 mm0 mm 23.3 °C 23.4 °C 0 min 0 W/m²
03:24 16.9 °C 13.4 °C 80 % 2 km/h (4 km/h) 0 mm0 mm 23.3 °C 23.4 °C 0 min 0 W/m²
03:18 16.9 °C 13 °C 78 % 2 km/h (4 km/h) 0 mm0 mm 23.3 °C 23.4 °C 0 min 0 W/m²
03:12 16.8 °C 13.1 °C 79 % 3 km/h (5 km/h) 0 mm0 mm 23.3 °C 23.4 °C 0 min 0 W/m²
03:06 16.8 °C 13.1 °C 79 % 4 km/h (6 km/h) 0 mm0 mm 23.3 °C 23.5 °C 0 min 0 W/m²
03:00 16.9 °C 13.2 °C 79 % 5 km/h (8 km/h) 0 mm0 mm 23.3 °C 23.5 °C 0 min 0 W/m²
02:54 16.9 °C 13 °C 78 % 7 km/h (8 km/h) 0 mm0 mm 23.4 °C 23.5 °C 0 min 0 W/m²
02:48 16.7 °C 12.8 °C 78 % 6 km/h (8 km/h) 0 mm0 mm 23.4 °C 23.5 °C 0 min 0 W/m²
02:42 16.5 °C 13 °C 80 % 6 km/h (8 km/h) 0 mm0 mm 23.4 °C 23.5 °C 0 min 0 W/m²
02:36 16.5 °C 13 °C 80 % 6 km/h (8 km/h) 0 mm0 mm 23.4 °C 23.5 °C 0 min 0 W/m²
02:30 16.5 °C 12.8 °C 79 % 5 km/h (7 km/h) 0 mm0 mm 23.4 °C 23.5 °C 0 min 0 W/m²
02:24 16.7 °C 12.8 °C 78 % 5 km/h (8 km/h) 0 mm0 mm 23.4 °C 23.5 °C 0 min 0 W/m²
02:18 16.7 °C 13 °C 79 % 7 km/h (10 km/h) 0 mm0 mm 23.4 °C 23.5 °C 0 min 0 W/m²
02:12 16.6 °C 12.9 °C 79 % 6 km/h (10 km/h) 0 mm0 mm 23.5 °C 23.5 °C 0 min 0 W/m²
02:06 16.6 °C 12.1 °C 75 % 4 km/h (7 km/h) 0 mm0 mm 23.5 °C 23.5 °C 0 min 0 W/m²
02:00 16.9 °C 12.6 °C 76 % 3 km/h (5 km/h) 0 mm0 mm 23.5 °C 23.5 °C 0 min 0 W/m²
01:54 17.4 °C 12.7 °C 74 % 0 km/h (3 km/h) 0 mm0 mm 23.5 °C 23.5 °C 0 min 0 W/m²
01:48 17.7 °C 12.2 °C 70 % 0 km/h (3 km/h) 0 mm0 mm 23.5 °C 23.5 °C 0 min 0 W/m²
01:42 17.8 °C 12.3 °C 70 % 0 km/h (4 km/h) 0 mm0 mm 23.5 °C 23.5 °C 0 min 0 W/m²
01:36 18.2 °C 12.4 °C 69 % 2 km/h (5 km/h) 0 mm0 mm 23.6 °C 23.5 °C 0 min 0 W/m²
01:30 18.4 °C 12.4 °C 68 % 5 km/h (8 km/h) 0 mm0 mm 23.6 °C 23.6 °C 0 min 0 W/m²
01:24 18.7 °C 12.2 °C 66 % 6 km/h (8 km/h) 0 mm0 mm 23.6 °C 23.5 °C 0 min 0 W/m²
01:18 18.9 °C 12.2 °C 65 % 6 km/h (12 km/h) 0 mm0 mm 23.6 °C 23.6 °C 0 min 0 W/m²
01:12 19.2 °C 12.2 °C 64 % 7 km/h (12 km/h) 0 mm0 mm 23.6 °C 23.6 °C 0 min 0 W/m²
01:06 19.5 °C 12 °C 62 % 8 km/h (13 km/h) 0 mm0 mm 23.6 °C 23.6 °C 0 min 0 W/m²
01:00 19.6 °C 12.1 °C 62 % 10 km/h (14 km/h) 0 mm0 mm 23.6 °C 23.6 °C 0 min 0 W/m²
00:54 19.8 °C 12.1 °C 61 % 11 km/h (14 km/h) 0 mm0 mm 23.6 °C 23.6 °C 0 min 0 W/m²
00:48 19.6 °C 12.1 °C 62 % 10 km/h (13 km/h) 0 mm0 mm 23.7 °C 23.6 °C 0 min 0 W/m²
00:42 19.5 °C 12.3 °C 63 % 9 km/h (12 km/h) 0 mm0 mm 23.7 °C 23.6 °C 0 min 0 W/m²
00:36 19.6 °C 12.4 °C 63 % 8 km/h (11 km/h) 0 mm0 mm 23.7 °C 23.6 °C 0 min 0 W/m²
00:30 19.7 °C 12.2 °C 62 % 9 km/h (11 km/h) 0 mm0 mm 23.7 °C 23.6 °C 0 min 0 W/m²
00:24 20 °C 12.2 °C 61 % 9 km/h (11 km/h) 0 mm0 mm 23.7 °C 23.6 °C 0 min 0 W/m²
00:18 20.2 °C 12.2 °C 60 % 9 km/h (10 km/h) 0 mm0 mm 23.7 °C 23.6 °C 0 min 0 W/m²
00:12 20.3 °C 12.3 °C 60 % 8 km/h (11 km/h) 0 mm0 mm 23.7 °C 23.6 °C 0 min 0 W/m²
00:06 20.6 °C 12.3 °C 59 % 10 km/h (13 km/h) 0 mm0 mm 23.7 °C 23.6 °C 0 min 0 W/m²
00:00 20.6 °C 12 °C 58 % 10 km/h (13 km/h) 0 mm0 mm 23.8 °C 23.6 °C 0 min 0 W/m²

Données via Météo-France

Relevés météo à Etoile

Cette page rassemble les observations de la station de Etoile : température, humidité, vent, précipitations et pression atmosphérique. Les graphiques facilitent le suivi de la journée, tandis que le tableau donne accès aux mesures horaires et infra-horaires disponibles.

Pour replacer ces mesures dans leur contexte, consultez la climatologie de Etoile ainsi que ses normales et records. Retrouvez aussi la carte des observations météo en temps réel.